Time,TemperatureF,DewpointF,PressureIn,WindDirection,WindDirectionDegrees,WindSpeedMPH,WindSpeedGustMPH,Humidity,HourlyPrecipIn,Conditions,Clouds,dailyrainin,SolarRadiationWatts/m^2,SoftwareType,DateUTC
2013-04-30 00:00:00,39.0,27.0,29.58,West,262,17.0,-999.0,63,-99.99,,,-99.99,0.050000,,2013-04-30 06:00:00,
2013-04-30 00:52:00,39.0,27.0,29.58,West,262,17.0,-999.0,63,-99.99,,,-99.99,0.050000,,2013-04-30 06:52:00,
2013-04-30 02:00:00,37.0,28.0,29.55,WSW,256,23.0,-999.0,69,-99.99,,,-99.99,0.040000,,2013-04-30 08:00:00,
2013-04-30 02:52:00,37.0,28.0,29.55,WSW,256,23.0,-999.0,69,-99.99,,,-99.99,0.040000,,2013-04-30 08:52:00,
2013-04-30 08:00:00,32.0,28.0,29.72,WNW,285,30.0,-999.0,85,-99.99,,,-99.99,160.199997,,2013-04-30 14:00:00,
2013-04-30 08:52:00,32.0,28.0,29.72,WNW,285,30.0,-999.0,85,-99.99,,,-99.99,160.199997,,2013-04-30 14:52:00,
2013-04-30 09:00:00,32.0,27.0,29.76,WNW,288,30.0,-999.0,80,-99.99,,,-99.99,225.000000,,2013-04-30 15:00:00,
2013-04-30 09:52:00,32.0,27.0,29.76,WNW,288,30.0,-999.0,80,-99.99,,,-99.99,225.000000,,2013-04-30 15:52:00,
2013-04-30 10:00:00,33.0,26.0,29.77,WNW,292,30.0,-999.0,74,-99.99,,,-99.99,353.000000,,2013-04-30 16:00:00,
2013-04-30 10:52:00,33.0,26.0,29.77,WNW,292,30.0,-999.0,74,-99.99,,,-99.99,353.000000,,2013-04-30 16:52:00,
2013-04-30 11:00:00,34.0,25.0,29.81,WNW,294,27.0,-999.0,70,-99.99,,,-99.99,384.100006,,2013-04-30 17:00:00,
2013-04-30 11:52:00,34.0,25.0,29.81,WNW,294,27.0,-999.0,70,-99.99,,,-99.99,384.100006,,2013-04-30 17:52:00,
2013-04-30 12:00:00,35.0,25.0,29.84,WNW,293,23.0,-999.0,66,-99.99,,,-99.99,307.899994,,2013-04-30 18:00:00,
2013-04-30 12:52:00,35.0,25.0,29.84,WNW,293,23.0,-999.0,66,-99.99,,,-99.99,307.899994,,2013-04-30 18:52:00,
2013-04-30 13:00:00,36.0,25.0,29.86,WNW,298,22.0,-999.0,64,-99.99,,,-99.99,292.700012,,2013-04-30 19:00:00,
2013-04-30 13:52:00,36.0,25.0,29.86,WNW,298,22.0,-999.0,64,-99.99,,,-99.99,292.700012,,2013-04-30 19:52:00,
2013-04-30 15:00:00,35.0,23.0,29.92,WNW,303,24.0,-999.0,60,-99.99,,,-99.99,379.399994,,2013-04-30 21:00:00,
2013-04-30 15:53:00,35.0,23.0,29.92,WNW,303,24.0,-999.0,60,-99.99,,,-99.99,379.399994,,2013-04-30 21:53:00,
2013-04-30 16:00:00,34.0,21.0,29.95,NW,319,22.0,-999.0,59,-99.99,,,-99.99,261.500000,,2013-04-30 22:00:00,
2013-04-30 16:53:00,34.0,21.0,29.95,NW,319,22.0,-999.0,59,-99.99,,,-99.99,261.500000,,2013-04-30 22:53:00,
2013-04-30 17:00:00,36.0,20.0,29.97,NW,322,23.0,-999.0,52,-99.99,,,-99.99,326.000000,,2013-04-30 23:00:00,
2013-04-30 17:52:00,36.0,20.0,29.97,NW,322,23.0,-999.0,52,-99.99,,,-99.99,326.000000,,2013-04-30 23:52:00,
2013-04-30 18:00:00,36.0,20.0,30.00,NW,323,22.0,-999.0,50,-99.99,,,-99.99,245.100006,,2013-05-01 00:00:00,
2013-04-30 18:52:00,36.0,20.0,30.00,NW,323,22.0,-999.0,50,-99.99,,,-99.99,245.100006,,2013-05-01 00:52:00,
2013-04-30 19:00:00,36.0,21.0,30.03,NNW,329,18.0,-999.0,54,-99.99,,,-99.99,165.800003,,2013-05-01 01:00:00,
2013-04-30 19:52:00,36.0,21.0,30.03,NNW,329,18.0,-999.0,54,-99.99,,,-99.99,165.800003,,2013-05-01 01:52:00,
2013-04-30 20:00:00,33.0,21.0,30.06,NNW,337,12.0,-999.0,60,-99.99,,,-99.99,63.830002,,2013-05-01 02:00:00,
2013-04-30 20:52:00,33.0,21.0,30.06,NNW,337,12.0,-999.0,60,-99.99,,,-99.99,63.830002,,2013-05-01 02:52:00,
2013-04-30 21:00:00,28.0,21.0,30.10,NW,314,6.0,-999.0,72,-99.99,,,-99.99,1.800000,,2013-05-01 03:00:00,
2013-04-30 21:53:00,28.0,21.0,30.10,NW,314,6.0,-999.0,72,-99.99,,,-99.99,1.800000,,2013-05-01 03:53:00,
2013-04-30 23:00:00,27.0,19.0,30.16,West,265,6.0,-999.0,71,-99.99,,,-99.99,0.040000,,2013-05-01 05:00:00,
2013-04-30 23:52:00,27.0,19.0,30.16,West,265,6.0,-999.0,71,-99.99,,,-99.99,0.040000,,2013-05-01 05:52:00,